Time;durP1;ratioP1;P1;durP2;ratioP2;P2;SDS_P1;SDS_P2;PMS_P1;PMS_P2;Temp;Humidity;BMP_temperature;BMP_pressure;BME280_temperature;BME280_humidity;BME280_pressure;Samples;Min_cycle;Max_cycle;Signal;HPM_P1;HPM_P2
2023/09/13 00:01:20;;;;;;;4.55;3.88;;;22.40;68.40;;;24.10;50.71;97460.13;5002812;28;20497;-67
2023/09/13 00:03:48;;;;;;;4.28;3.85;;;22.40;67.80;;;24.04;50.67;97463.81;5034222;28;20057;-67
2023/09/13 00:06:16;;;;;;;6.05;4.47;;;22.40;68.20;;;24.06;50.48;97467.13;5013205;28;20045;-67
2023/09/13 00:08:45;;;;;;;5.97;3.75;;;22.40;67.60;;;24.08;50.26;97462.25;5022277;28;20056;-67
2023/09/13 00:11:12;;;;;;;4.57;3.75;;;22.40;67.90;;;24.07;50.42;97469.59;5017847;28;20046;-67
2023/09/13 00:13:41;;;;;;;4.95;4.32;;;22.40;68.20;;;24.04;49.82;97464.69;5018334;28;20042;-67
2023/09/13 00:16:09;;;;;;;4.38;3.22;;;22.30;67.20;;;24.08;49.70;97476.69;5021397;28;20432;-67
2023/09/13 00:18:37;;;;;;;3.88;3.30;;;22.40;66.50;;;24.10;49.76;97466.38;5022615;28;20041;-67
2023/09/13 00:21:04;;;;;;;5.50;4.10;;;22.40;66.70;;;24.10;49.44;97474.53;5019662;28;20045;-67
2023/09/13 00:23:32;;;;;;;3.90;3.22;;;22.40;65.30;;;24.05;48.91;97466.31;5018636;28;20045;-67
2023/09/13 00:26:00;;;;;;;4.55;3.35;;;22.40;64.80;;;24.03;48.82;97471.19;5020394;28;20048;-67
2023/09/13 00:28:27;;;;;;;3.95;3.50;;;22.40;64.30;;;24.00;48.75;97470.84;5022126;28;20048;-67
2023/09/13 00:30:56;;;;;;;4.35;3.58;;;22.30;64.40;;;24.00;49.39;97468.13;5021246;28;20680;-66
2023/09/13 00:33:25;;;;;;;3.58;3.17;;;22.30;66.00;;;23.99;50.21;97470.03;5017213;28;20042;-66
2023/09/13 00:35:56;;;;;;;7.38;3.90;;;22.20;67.50;;;23.98;50.53;97465.66;5018689;28;20393;-66
2023/09/13 00:38:24;;;;;;;4.47;3.63;;;22.20;68.10;;;23.94;51.00;97468.09;5020743;28;20056;-66
2023/09/13 00:40:52;;;;;;;4.65;3.75;;;22.10;69.70;;;23.91;50.51;97474.00;5010662;28;20042;-66
2023/09/13 00:43:20;;;;;;;5.50;3.55;;;22.00;68.70;;;23.92;50.10;97474.81;5005059;28;20041;-66
2023/09/13 00:45:50;;;;;;;7.68;3.40;;;22.10;68.00;;;23.89;50.47;97465.28;5012460;28;20050;-66
2023/09/13 00:48:18;;;;;;;3.70;3.40;;;22.00;68.20;;;23.88;50.50;97466.34;5020072;28;20050;-66
2023/09/13 00:50:47;;;;;;;5.30;3.22;;;22.00;68.90;;;23.81;50.39;97473.88;5019560;28;20045;-66
2023/09/13 00:53:23;;;;;;;4.57;3.05;;;21.90;68.30;;;23.78;50.34;97461.59;5005056;28;20042;-66
2023/09/13 00:55:53;;;;;;;5.00;3.58;;;21.80;68.70;;;23.75;51.62;97444.97;5005614;28;20147;-66
2023/09/13 00:58:21;;;;;;;4.95;4.20;;;21.90;71.30;;;23.72;52.12;97435.41;5003415;28;20041;-66
2023/09/13 01:00:53;;;;;;;4.68;3.58;;;21.80;72.80;;;23.72;52.59;97418.28;5020664;28;20041;-66
2023/09/13 01:03:22;;;;;;;6.07;3.72;;;21.90;73.00;;;23.70;53.47;97418.50;5000738;28;20049;-66
2023/09/13 01:05:54;;;;;;;4.68;3.80;;;21.90;74.40;;;23.68;53.82;97422.56;5025061;28;20511;-66
2023/09/13 01:08:22;;;;;;;4.63;3.78;;;21.90;75.40;;;23.64;53.99;97424.97;5017214;28;20406;-66
2023/09/13 01:10:50;;;;;;;6.18;3.72;;;21.80;75.80;;;23.55;54.42;97427.31;5016807;28;20455;-66
2023/09/13 01:13:17;;;;;;;6.25;4.05;;;21.70;77.40;;;23.50;55.00;97423.69;5020807;27;20054;-66
2023/09/13 01:16:17;;;;;;;5.57;4.10;;;21.50;79.00;;;23.43;54.55;97418.41;5020202;28;20046;-66
2023/09/13 01:19:36;;;;;;;5.38;4.03;;;21.40;79.00;;;23.31;54.78;97414.97;5017805;28;20041;-66
2023/09/13 01:22:55;;;;;;;6.55;4.20;;;21.30;81.50;;;23.24;54.89;97408.88;5019137;28;20057;-66
2023/09/13 01:26:08;;;;;;;3.67;3.35;;;21.10;81.70;;;23.15;54.69;97417.47;5015919;28;20050;-66
2023/09/13 01:28:46;;;;;;;7.05;4.78;;;21.10;81.00;;;23.10;55.27;97411.13;5021943;28;20129;-66
2023/09/13 01:31:20;;;;;;;4.43;3.80;;;20.90;82.20;;;23.06;55.17;97418.13;5019406;28;20429;-66
2023/09/13 01:33:49;;;;;;;6.57;3.30;;;20.90;80.30;;;23.00;55.38;97418.00;5020185;28;20040;-66
2023/09/13 01:36:17;;;;;;;5.38;3.78;;;20.80;81.00;;;22.95;55.36;97431.50;5024858;28;20042;-66
2023/09/13 01:38:45;;;;;;;4.78;3.85;;;20.80;81.00;;;22.91;55.87;97426.78;5026205;28;20053;-66
2023/09/13 01:41:22;;;;;;;5.63;4.70;;;20.80;81.50;;;22.86;55.35;97424.84;5019530;28;20489;-66
2023/09/13 01:43:53;;;;;;;6.43;3.80;;;20.80;81.30;;;22.84;55.53;97424.25;5035319;28;20045;-66
2023/09/13 01:46:33;;;;;;;4.45;4.05;;;20.80;80.80;;;22.81;55.39;97428.25;5045758;28;20060;-67
2023/09/13 01:49:02;;;;;;;5.40;4.55;;;20.80;80.20;;;22.81;55.73;97427.44;4986402;28;20077;-66
2023/09/13 01:51:32;;;;;;;5.10;3.80;;;20.80;80.10;;;22.80;55.42;97432.06;5015500;28;20052;-66
2023/09/13 01:54:00;;;;;;;5.65;4.03;;;20.80;79.50;;;22.78;55.70;97425.25;5033475;28;20433;-66
2023/09/13 01:56:28;;;;;;;5.93;4.55;;;20.80;79.60;;;22.68;56.06;97408.75;5029257;27;20393;-66
2023/09/13 01:58:56;;;;;;;4.43;4.03;;;20.70;80.90;;;22.65;55.89;97404.66;5002996;28;20049;-66
2023/09/13 02:01:24;;;;;;;4.93;4.43;;;20.70;80.60;;;22.63;56.21;97416.84;5015694;28;20045;-66
2023/09/13 02:03:52;;;;;;;5.18;3.88;;;20.70;80.20;;;22.61;56.28;97419.78;5027080;28;20053;-66
2023/09/13 02:06:19;;;;;;;5.63;3.90;;;20.70;80.50;;;22.59;56.25;97420.03;5018747;28;20052;-66
2023/09/13 02:08:47;;;;;;;4.50;3.53;;;20.70;80.00;;;22.59;56.18;97421.91;5035588;28;20516;-66
2023/09/13 02:11:15;;;;;;;4.70;3.45;;;20.70;80.20;;;22.57;56.22;97424.06;5032789;28;20509;-67
2023/09/13 02:13:43;;;;;;;5.35;3.75;;;20.70;79.50;;;22.54;56.14;97417.19;5016609;28;20046;-66
2023/09/13 02:16:11;;;;;;;4.97;3.95;;;20.60;80.40;;;22.52;56.07;97411.19;5034139;28;20057;-66
2023/09/13 02:18:40;;;;;;;4.18;3.28;;;20.60;79.70;;;22.48;56.46;97412.75;5002608;28;20516;-66
2023/09/13 02:21:09;;;;;;;5.00;4.20;;;20.60;80.30;;;22.44;56.26;97418.94;5033441;28;20076;-66
2023/09/13 02:23:38;;;;;;;5.72;3.78;;;20.50;81.10;;;22.39;56.59;97420.47;5021645;28;20061;-67
2023/09/13 02:26:06;;;;;;;4.13;3.72;;;20.50;81.40;;;22.35;56.97;97427.47;5017489;28;20041;-66
2023/09/13 02:28:35;;;;;;;5.05;4.55;;;20.40;81.60;;;22.35;56.45;97430.16;5019148;28;20096;-66
2023/09/13 02:31:02;;;;;;;6.47;3.80;;;20.50;81.60;;;22.36;56.99;97431.78;5018312;28;20074;-66
2023/09/13 02:33:30;;;;;;;5.75;4.43;;;20.40;82.00;;;22.33;56.88;97426.88;5033350;28;20049;-67
2023/09/13 02:35:58;;;;;;;7.68;4.85;;;20.40;81.10;;;22.33;57.03;97434.16;5016776;28;20046;-66
2023/09/13 02:38:25;;;;;;;5.32;3.95;;;20.40;81.20;;;22.32;57.01;97432.53;5002408;28;20500;-66
2023/09/13 02:40:53;;;;;;;11.13;4.80;;;20.40;81.20;;;22.28;56.70;97436.78;5019101;28;20069;-66
2023/09/13 02:43:21;;;;;;;5.30;3.85;;;20.40;81.00;;;22.23;56.51;97440.19;5032862;28;20049;-66
2023/09/13 02:45:49;;;;;;;5.10;3.63;;;20.40;81.00;;;22.25;56.42;97448.13;5016145;28;20049;-67
2023/09/13 02:48:16;;;;;;;5.25;4.30;;;20.30;80.60;;;22.21;56.68;97447.72;4999549;28;20527;-67
2023/09/13 02:50:44;;;;;;;4.38;3.63;;;20.30;81.00;;;22.17;56.54;97449.28;5032300;28;20432;-67
2023/09/13 02:53:11;;;;;;;4.40;3.90;;;20.30;80.80;;;22.10;56.99;97443.16;5030051;28;20053;-67
2023/09/13 02:55:39;;;;;;;5.97;4.45;;;20.20;80.90;;;22.05;56.80;97438.47;5034863;28;20049;-68
2023/09/13 02:58:08;;;;;;;5.53;4.15;;;20.20;80.90;;;22.00;57.05;97443.78;5018176;28;20041;-67
2023/09/13 03:00:36;;;;;;;4.95;4.25;;;20.10;80.90;;;21.90;57.19;97454.41;5021035;28;20044;-67
2023/09/13 03:03:04;;;;;;;4.55;3.75;;;20.10;81.10;;;21.89;57.22;97463.59;5018850;28;20050;-67
2023/09/13 03:05:32;;;;;;;6.68;3.88;;;20.10;81.90;;;21.86;57.24;97464.91;5026600;28;20046;-66
2023/09/13 03:08:00;;;;;;;6.22;3.72;;;20.00;81.60;;;21.80;57.12;97461.25;5017922;28;20543;-66
2023/09/13 03:10:28;;;;;;;4.82;3.67;;;20.00;81.30;;;21.70;57.63;97463.75;5016143;28;20049;-66
2023/09/13 03:12:56;;;;;;;5.35;3.45;;;20.00;81.50;;;21.76;57.14;97468.22;5014933;28;20054;-67
2023/09/13 03:15:23;;;;;;;4.80;3.90;;;20.00;80.90;;;21.79;57.08;97456.91;5064902;28;20046;-66
2023/09/13 03:17:51;;;;;;;4.40;3.00;;;20.10;80.30;;;21.74;57.60;97461.41;5018238;28;20046;-67
2023/09/13 03:20:19;;;;;;;4.28;3.42;;;20.00;80.50;;;21.74;57.32;97464.91;5026139;28;20057;-66
2023/09/13 03:22:46;;;;;;;4.07;3.67;;;20.00;80.50;;;21.75;57.47;97474.72;5010126;28;20396;-66
2023/09/13 03:25:14;;;;;;;6.15;4.57;;;20.00;80.20;;;21.67;57.19;97466.09;5022652;27;20057;-67
2023/09/13 03:27:43;;;;;;;4.80;4.07;;;20.00;80.30;;;21.63;57.17;97463.03;5038070;28;20049;-66
2023/09/13 03:30:12;;;;;;;4.47;3.88;;;19.90;80.50;;;21.58;57.62;97455.63;5030490;27;20050;-67
2023/09/13 03:32:39;;;;;;;5.47;3.95;;;19.90;80.90;;;21.50;58.09;97452.44;5014685;28;20053;-67
2023/09/13 03:35:07;;;;;;;6.25;3.65;;;19.80;81.00;;;21.55;57.83;97455.28;5022118;28;20068;-67
2023/09/13 03:37:36;;;;;;;5.75;3.85;;;19.90;80.60;;;21.54;57.64;97453.63;5017986;28;20042;-66
2023/09/13 03:40:05;;;;;;;5.75;4.00;;;20.00;80.50;;;21.54;57.96;97453.63;5030084;28;20053;-67
2023/09/13 03:42:34;;;;;;;6.03;4.45;;;20.00;80.10;;;21.61;57.42;97465.97;5019421;28;20208;-67
2023/09/13 03:45:02;;;;;;;6.53;4.20;;;20.00;80.10;;;21.67;57.76;97458.78;5029080;28;20056;-67
2023/09/13 03:47:30;;;;;;;5.18;4.55;;;20.10;79.80;;;21.76;57.51;97445.72;5022329;28;20061;-67
2023/09/13 03:49:58;;;;;;;6.65;3.78;;;20.10;79.50;;;21.77;57.06;97460.91;5021903;28;20042;-67
2023/09/13 03:52:26;;;;;;;4.38;3.80;;;20.10;79.30;;;21.67;57.33;97457.97;5018011;28;20053;-66
2023/09/13 03:54:53;;;;;;;7.07;4.30;;;20.00;79.80;;;21.68;57.61;97463.16;5026769;28;20046;-67
2023/09/13 03:57:21;;;;;;;4.13;3.70;;;20.00;79.70;;;21.61;57.42;97459.75;5029296;27;20045;-67
2023/09/13 03:59:48;;;;;;;5.72;3.90;;;20.00;79.90;;;21.62;57.62;97458.69;5023217;28;20417;-67
2023/09/13 04:02:17;;;;;;;4.90;3.92;;;20.00;80.00;;;21.54;57.82;97465.28;5028361;28;20050;-67
2023/09/13 04:04:44;;;;;;;5.63;4.22;;;19.90;80.30;;;21.54;57.93;97470.72;5022491;27;20049;-67
2023/09/13 04:07:12;;;;;;;4.05;3.65;;;19.90;80.40;;;21.59;57.65;97475.41;5028588;28;20057;-67
2023/09/13 04:09:40;;;;;;;6.63;4.13;;;20.00;79.90;;;21.63;57.87;97476.59;5017805;28;20437;-67
2023/09/13 04:12:07;;;;;;;4.93;3.80;;;20.00;79.60;;;21.56;57.43;97484.84;5017851;28;20057;-66
2023/09/13 04:14:35;;;;;;;6.43;4.20;;;20.00;80.00;;;21.50;57.80;97480.38;5018303;28;20512;-66
2023/09/13 04:17:03;;;;;;;6.85;4.32;;;19.90;80.50;;;21.46;58.05;97489.19;5034436;27;20071;-67
2023/09/13 04:19:31;;;;;;;4.85;3.88;;;19.90;80.70;;;21.42;58.14;97489.63;5020201;28;20049;-66
2023/09/13 04:21:58;;;;;;;5.32;4.45;;;19.80;81.00;;;21.38;58.25;97482.19;5020236;28;20046;-67
2023/09/13 04:24:26;;;;;;;5.72;4.38;;;19.80;81.30;;;21.45;58.08;97485.66;5017810;28;20049;-67
2023/09/13 04:26:54;;;;;;;5.00;4.25;;;19.90;81.40;;;21.42;58.20;97484.22;5018431;28;20037;-67
2023/09/13 04:29:21;;;;;;;5.65;4.00;;;19.80;81.40;;;21.42;58.54;97486.94;5020359;28;20050;-67
2023/09/13 04:31:49;;;;;;;8.25;4.22;;;19.80;81.60;;;21.38;58.42;97487.63;5021663;28;20049;-67
2023/09/13 04:34:18;;;;;;;5.68;3.97;;;19.80;81.90;;;21.39;58.36;97490.09;5028839;27;20130;-66
2023/09/13 04:36:45;;;;;;;4.53;3.88;;;19.80;82.00;;;21.44;58.18;97492.13;5016869;28;20041;-66
2023/09/13 04:39:13;;;;;;;4.93;4.18;;;19.80;81.90;;;21.35;58.66;97491.63;5014194;28;20504;-66
2023/09/13 04:41:41;;;;;;;5.63;3.88;;;19.80;82.40;;;21.37;58.93;97502.22;5020040;28;20069;-66
2023/09/13 04:44:09;;;;;;;4.60;3.78;;;19.80;82.60;;;21.43;58.61;97493.16;5003497;28;20398;-66
2023/09/13 04:46:36;;;;;;;5.07;3.63;;;19.80;82.40;;;21.48;58.73;97498.75;5020427;28;20049;-66
2023/09/13 04:49:04;;;;;;;6.10;5.50;;;19.80;82.10;;;21.46;58.46;97508.13;5020570;28;20508;-66
2023/09/13 04:51:32;;;;;;;4.35;3.63;;;19.80;82.30;;;21.52;58.66;97508.03;5018523;28;20076;-66
2023/09/13 04:54:00;;;;;;;4.30;3.83;;;19.90;82.10;;;21.54;58.54;97502.38;5032599;28;20441;-66
2023/09/13 04:56:28;;;;;;;6.80;4.40;;;19.90;81.90;;;21.46;58.68;97502.72;5017918;28;20521;-66
2023/09/13 04:58:55;;;;;;;5.63;4.13;;;19.90;82.00;;;21.51;58.17;97494.72;5021702;28;20063;-66
2023/09/13 05:01:23;;;;;;;6.15;4.32;;;19.80;81.70;;;21.55;57.97;97506.75;5019863;28;20420;-66
2023/09/13 05:03:52;;;;;;;4.82;4.32;;;19.90;81.30;;;21.52;58.20;97510.75;5020907;28;20041;-67
2023/09/13 05:06:20;;;;;;;5.60;3.97;;;19.90;81.40;;;21.56;57.97;97524.66;5019574;28;20421;-66
2023/09/13 05:08:52;;;;;;;4.78;3.80;;;19.90;81.00;;;21.55;58.20;97525.69;5029570;28;20061;-70
2023/09/13 05:11:20;;;;;;;4.68;3.90;;;19.90;81.10;;;21.59;58.00;97530.41;5020188;28;20057;-70
2023/09/13 05:13:47;;;;;;;8.70;3.97;;;19.90;81.20;;;21.57;58.21;97531.72;5019555;28;20045;-70
2023/09/13 05:16:19;;;;;;;5.40;3.78;;;19.90;81.10;;;21.59;58.07;97524.97;5021299;28;20049;-68
2023/09/13 05:18:47;;;;;;;4.90;3.58;;;19.90;80.80;;;21.60;58.23;97526.66;5016723;28;20524;-69
2023/09/13 05:21:15;;;;;;;5.03;3.65;;;20.00;80.70;;;21.50;58.61;97522.84;5016807;28;20053;-69
2023/09/13 05:23:42;;;;;;;4.45;3.75;;;19.90;81.30;;;21.49;58.16;97513.91;5015573;28;20046;-69
2023/09/13 05:26:10;;;;;;;3.97;3.60;;;19.90;81.40;;;21.50;58.38;97520.16;5016859;28;20413;-68
2023/09/13 05:28:38;;;;;;;6.25;4.80;;;19.90;81.60;;;21.47;58.71;97520.63;5020659;28;20041;-68
2023/09/13 05:31:06;;;;;;;5.05;4.20;;;19.80;81.60;;;21.53;58.41;97533.22;5021424;28;20037;-68
2023/09/13 05:33:34;;;;;;;4.03;3.58;;;19.90;81.40;;;21.56;58.58;97527.38;5018411;28;20409;-68
2023/09/13 05:36:07;;;;;;;4.93;3.65;;;19.90;81.30;;;21.66;58.28;97537.63;5017634;28;20516;-68
2023/09/13 05:38:35;;;;;;;4.13;3.53;;;20.00;80.90;;;21.73;57.94;97546.44;5019976;28;20042;-69
2023/09/13 05:41:11;;;;;;;5.15;4.00;;;20.10;80.40;;;21.72;58.14;97548.31;5021190;28;20072;-68
2023/09/13 05:43:41;;;;;;;4.75;3.55;;;20.10;80.60;;;21.60;58.41;97542.09;5015919;28;20406;-68
2023/09/13 05:46:09;;;;;;;7.20;3.83;;;20.00;81.00;;;21.58;58.27;97542.31;5014907;28;20053;-68
2023/09/13 05:48:37;;;;;;;4.30;3.33;;;19.90;81.30;;;21.53;58.78;97546.78;5018356;28;20139;-68
2023/09/13 05:51:05;;;;;;;4.10;3.45;;;19.90;81.70;;;21.52;58.48;97534.28;5019855;28;20072;-68
2023/09/13 05:53:33;;;;;;;3.83;3.10;;;19.80;81.80;;;21.54;58.54;97524.03;5018357;28;20052;-68
2023/09/13 05:56:03;;;;;;;3.85;3.40;;;19.90;81.60;;;21.48;58.83;97524.97;5021894;28;20049;-68
2023/09/13 05:58:31;;;;;;;4.78;3.08;;;19.80;82.20;;;21.52;58.62;97526.16;5019653;28;20108;-68
2023/09/13 06:00:59;;;;;;;5.00;3.72;;;19.90;82.40;;;21.54;58.68;97533.00;5019025;28;20056;-68
2023/09/13 06:03:30;;;;;;;4.28;3.75;;;19.90;82.50;;;21.59;58.64;97540.41;5019073;28;20056;-68
2023/09/13 06:05:58;;;;;;;4.88;3.33;;;19.90;82.10;;;21.57;58.90;97546.06;5017428;28;20061;-68
2023/09/13 06:08:25;;;;;;;4.32;3.25;;;19.90;82.40;;;21.45;58.74;97550.66;5017918;28;20052;-68
2023/09/13 06:10:53;;;;;;;5.03;4.00;;;19.80;82.70;;;21.50;59.20;97558.91;5020587;28;20049;-68
2023/09/13 06:13:20;;;;;;;5.22;4.50;;;19.90;82.80;;;21.49;59.18;97564.56;5020264;28;20049;-68
2023/09/13 06:15:48;;;;;;;4.75;4.10;;;19.90;82.60;;;21.50;58.97;97571.59;5017351;28;20053;-68
2023/09/13 06:18:16;;;;;;;3.95;3.55;;;19.80;82.20;;;21.45;59.32;97572.31;5016790;28;20050;-68
2023/09/13 06:20:44;;;;;;;4.10;3.33;;;19.80;82.80;;;21.41;59.51;97573.81;5020226;28;20492;-68
2023/09/13 06:23:39;;;;;;;3.72;3.22;;;19.80;83.20;;;21.39;59.39;97576.75;5013629;27;20523;-68
2023/09/13 06:26:08;;;;;;;4.72;4.13;;;19.80;83.50;;;21.48;59.02;97589.97;5016938;28;20069;-68
2023/09/13 06:28:35;;;;;;;6.00;3.50;;;19.90;83.90;;;21.54;58.93;97591.75;5017669;28;20042;-68
2023/09/13 06:31:03;;;;;;;4.35;3.67;;;20.00;82.60;;;21.54;59.27;97600.72;5029010;27;20060;-68
2023/09/13 06:33:32;;;;;;;5.38;3.67;;;20.00;82.50;;;21.61;58.94;97603.31;5018744;28;20584;-68
2023/09/13 06:36:04;;;;;;;3.85;3.55;;;20.00;82.50;;;21.64;59.04;97600.16;5019286;28;20045;-67
2023/09/13 06:38:32;;;;;;;4.93;3.95;;;20.00;82.50;;;21.67;58.72;97612.38;5017703;28;20053;-67
2023/09/13 06:41:01;;;;;;;4.20;3.55;;;20.10;82.30;;;21.71;58.61;97613.56;5015362;28;20474;-67
2023/09/13 06:43:30;;;;;;;4.35;3.95;;;20.10;82.10;;;21.73;59.22;97616.88;5017027;28;20493;-68
2023/09/13 06:46:01;;;;;;;4.93;3.03;;;20.10;82.10;;;21.78;58.72;97609.69;5020282;28;20042;-68
2023/09/13 06:48:34;;;;;;;3.90;3.40;;;20.20;82.00;;;21.78;58.68;97615.09;5018532;28;20045;-68
2023/09/13 06:51:03;;;;;;;4.93;3.70;;;20.20;81.90;;;21.77;58.40;97612.63;5014653;28;20052;-68
2023/09/13 06:53:34;;;;;;;3.70;3.38;;;20.10;81.50;;;21.70;58.62;97618.16;5017503;28;20064;-68
2023/09/13 06:56:03;;;;;;;3.85;3.22;;;20.10;82.00;;;21.74;58.71;97613.13;5018810;28;20072;-67
2023/09/13 06:58:36;;;;;;;3.92;3.58;;;20.10;81.60;;;21.73;58.50;97622.28;5018313;28;20050;-68
2023/09/13 07:01:06;;;;;;;3.58;3.10;;;20.10;82.10;;;21.72;58.94;97624.19;5028788;28;20054;-68
2023/09/13 07:03:53;;;;;;;3.97;3.60;;;20.00;82.00;;;21.67;58.96;97615.91;5019902;28;20042;-68
2023/09/13 07:06:26;;;;;;;4.00;3.17;;;20.00;82.10;;;21.68;58.74;97619.47;5019860;28;20038;-67
2023/09/13 07:08:54;;;;;;;5.45;3.15;;;20.00;82.10;;;21.72;58.40;97626.88;5016424;28;20406;-67
2023/09/13 07:11:24;;;;;;;4.13;3.10;;;20.00;81.90;;;21.75;58.78;97622.88;5015278;28;20053;-67
2023/09/13 07:13:51;;;;;;;4.28;2.95;;;20.10;81.60;;;21.70;58.24;97617.34;5018091;28;20059;-67
2023/09/13 07:16:19;;;;;;;4.97;3.28;;;20.10;81.20;;;21.67;58.68;97621.34;5019882;28;20042;-68
2023/09/13 07:18:47;;;;;;;3.13;2.50;;;20.10;80.90;;;21.54;58.34;97624.25;5016709;28;20050;-68
2023/09/13 07:21:14;;;;;;;3.47;2.72;;;20.00;80.50;;;21.49;58.68;97624.94;5014565;28;20413;-68
2023/09/13 07:23:42;;;;;;;3.53;2.95;;;20.00;81.00;;;21.51;58.53;97628.25;5017949;28;20057;-68
2023/09/13 07:26:10;;;;;;;3.28;2.75;;;20.00;80.80;;;21.46;58.69;97641.69;5019882;28;20046;-68
2023/09/13 07:28:38;;;;;;;3.30;2.88;;;20.00;81.20;;;21.46;58.71;97636.25;5024822;28;20046;-68
2023/09/13 07:31:10;;;;;;;3.70;2.85;;;19.90;81.80;;;21.51;59.19;97630.16;5015168;28;20049;-68
2023/09/13 07:33:37;;;;;;;3.50;2.70;;;20.00;81.60;;;21.61;58.73;97636.63;5015851;28;20393;-68
2023/09/13 07:36:05;;;;;;;4.72;3.95;;;20.10;81.30;;;21.61;58.81;97635.81;5018662;28;20056;-68
2023/09/13 07:38:34;;;;;;;4.03;3.20;;;20.10;81.10;;;21.60;58.94;97636.88;5018684;28;20057;-68
2023/09/13 07:41:02;;;;;;;3.47;2.72;;;20.10;81.20;;;21.65;59.07;97644.31;5016169;28;20042;-68
2023/09/13 07:43:30;;;;;;;5.03;3.35;;;20.20;81.00;;;21.72;58.88;97651.28;5015752;28;20493;-68
2023/09/13 07:45:57;;;;;;;5.00;3.17;;;20.30;81.30;;;21.70;58.95;97661.50;5019587;28;20500;-67
2023/09/13 07:48:27;;;;;;;5.15;3.22;;;20.20;81.60;;;21.78;59.26;97665.78;5019184;28;20049;-68
2023/09/13 07:50:54;;;;;;;5.05;3.80;;;20.30;81.70;;;21.79;59.44;97667.41;5018923;28;20048;-67
2023/09/13 07:53:23;;;;;;;5.40;3.70;;;20.30;81.70;;;21.67;59.60;97663.84;5018929;28;20049;-67
2023/09/13 07:55:50;;;;;;;4.18;3.40;;;20.20;83.50;;;21.78;59.23;97673.91;5016443;28;20429;-67
2023/09/13 07:58:18;;;;;;;4.15;3.42;;;20.30;82.50;;;21.84;59.54;97659.41;5015827;28;20042;-67
2023/09/13 08:00:46;;;;;;;6.20;4.00;;;20.30;82.50;;;21.83;59.43;97665.91;5017851;28;20042;-67
2023/09/13 08:03:14;;;;;;;5.35;4.85;;;20.30;82.20;;;21.85;59.35;97665.66;5017780;28;20073;-68
2023/09/13 08:05:46;;;;;;;4.72;3.67;;;20.20;82.80;;;21.83;59.60;97668.63;5017648;28;20046;-67
2023/09/13 08:08:22;;;;;;;5.45;4.32;;;20.20;83.00;;;21.81;59.27;97666.13;5016963;28;20064;-68
2023/09/13 08:10:50;;;;;;;5.18;4.05;;;20.20;83.00;;;21.84;59.27;97664.84;5020408;28;20112;-67
2023/09/13 08:13:21;;;;;;;5.70;4.10;;;20.20;83.00;;;21.80;59.67;97664.47;5022182;28;20048;-68
2023/09/13 08:15:50;;;;;;;4.15;3.38;;;20.20;83.30;;;21.77;59.72;97675.78;5019769;28;20056;-67
2023/09/13 08:18:18;;;;;;;4.68;3.95;;;20.20;83.70;;;21.77;59.89;97673.09;5017858;28;20046;-67
2023/09/13 08:20:46;;;;;;;4.10;3.70;;;20.20;83.60;;;21.66;59.69;97678.47;5020750;28;20501;-68
2023/09/13 08:23:14;;;;;;;5.20;4.00;;;20.10;83.80;;;21.60;60.01;97691.06;5020767;28;20060;-68
2023/09/13 08:25:43;;;;;;;5.45;3.75;;;20.00;84.30;;;21.59;59.93;97684.78;5019751;28;20041;-67
2023/09/13 08:28:11;;;;;;;4.53;4.13;;;20.00;84.10;;;21.68;60.21;97693.44;5017769;28;20057;-68
2023/09/13 08:30:38;;;;;;;4.45;4.05;;;20.10;84.20;;;21.71;60.26;97684.81;5019213;28;20528;-67
2023/09/13 08:33:07;;;;;;;5.72;4.15;;;20.20;84.20;;;21.80;60.05;97691.56;5021756;28;20527;-67
2023/09/13 08:35:35;;;;;;;5.03;3.65;;;20.20;84.00;;;21.83;59.69;97698.44;5021972;28;20056;-67
2023/09/13 08:38:03;;;;;;;5.60;4.88;;;20.30;83.60;;;21.66;60.08;97700.16;5026371;27;20062;-67
2023/09/13 08:40:31;;;;;;;5.78;4.50;;;20.20;83.90;;;21.63;60.28;97698.72;5012852;28;20045;-68
2023/09/13 08:42:59;;;;;;;5.35;4.43;;;20.10;84.10;;;21.70;60.24;97695.91;5020680;28;20042;-67
2023/09/13 08:45:29;;;;;;;4.82;4.25;;;20.20;84.90;;;21.85;59.80;97695.47;5020778;28;20041;-68
2023/09/13 08:48:01;;;;;;;4.80;4.25;;;20.30;83.60;;;21.94;59.86;97696.78;5013970;28;20050;-68
2023/09/13 08:50:30;;;;;;;5.47;4.10;;;20.40;83.00;;;22.02;59.55;97691.00;5018639;28;20049;-68
2023/09/13 08:53:00;;;;;;;5.18;4.68;;;20.50;81.80;;;22.08;59.17;97695.53;5019777;28;20300;-67
2023/09/13 08:55:31;;;;;;;6.25;5.03;;;20.50;82.20;;;22.15;59.15;97703.53;5020379;28;20520;-67
2023/09/13 08:58:02;;;;;;;5.65;4.07;;;20.60;81.70;;;22.17;59.29;97696.81;5017594;28;20045;-68
2023/09/13 09:00:37;;;;;;;6.50;5.15;;;20.70;81.80;;;22.27;59.05;97703.56;5017162;28;20057;-67
2023/09/13 09:03:07;;;;;;;7.13;3.80;;;20.80;81.40;;;22.33;59.03;97697.19;5017199;28;20049;-67
2023/09/13 09:05:37;;;;;;;4.43;3.70;;;20.90;80.70;;;22.41;58.69;97691.41;5018502;28;20390;-67
2023/09/13 09:08:06;;;;;;;4.38;3.40;;;21.00;80.10;;;22.45;58.15;97705.34;5018332;28;20049;-67
2023/09/13 09:10:35;;;;;;;4.05;3.47;;;21.00;79.60;;;22.51;57.89;97709.84;5016979;28;20079;-68
2023/09/13 09:13:05;;;;;;;5.00;3.83;;;21.00;78.90;;;22.56;57.63;97708.03;5016589;28;20038;-68
2023/09/13 09:15:37;;;;;;;8.02;4.13;;;21.10;78.10;;;22.52;57.28;97723.16;5017259;28;20046;-67
2023/09/13 09:18:09;;;;;;;4.72;3.40;;;21.00;77.30;;;22.50;57.40;97714.41;5016345;28;20042;-67
2023/09/13 09:20:39;;;;;;;4.55;3.83;;;20.90;78.50;;;22.52;57.14;97716.91;5016493;28;20493;-67
2023/09/13 09:23:07;;;;;;;5.30;4.80;;;21.00;78.80;;;22.53;56.94;97721.28;5017683;28;20045;-68
2023/09/13 09:25:44;;;;;;;5.68;4.22;;;21.00;77.40;;;22.51;57.01;97716.09;5016742;28;20046;-68
2023/09/13 09:28:12;;;;;;;4.68;4.07;;;20.90;78.20;;;22.51;57.16;97717.97;5021409;28;20060;-67
2023/09/13 09:30:40;;;;;;;5.10;4.00;;;20.90;78.00;;;22.51;56.82;97724.22;5021264;28;20049;-67
2023/09/13 09:33:07;;;;;;;6.68;3.83;;;20.90;77.90;;;22.49;56.55;97726.34;5016427;28;20415;-68
2023/09/13 09:35:36;;;;;;;4.53;3.80;;;20.90;77.50;;;22.38;56.94;97725.28;5017950;28;20398;-67
2023/09/13 09:38:25;;;;;;;4.78;4.10;;;20.80;77.40;;;22.33;56.94;97724.31;5019580;28;20056;-67
2023/09/13 09:40:58;;;;;;;6.18;4.43;;;20.80;77.20;;;22.36;57.05;97730.09;5018333;28;20052;-68
2023/09/13 09:43:26;;;;;;;4.68;3.88;;;20.80;78.10;;;22.29;56.97;97729.38;5016374;28;20050;-67
2023/09/13 09:45:54;;;;;;;4.70;3.80;;;20.80;78.20;;;22.18;57.10;97736.44;5019615;28;20046;-67
2023/09/13 09:48:22;;;;;;;5.43;3.72;;;20.70;77.20;;;22.25;56.98;97730.91;5027828;28;20045;-67
2023/09/13 09:50:53;;;;;;;4.82;4.10;;;20.80;77.50;;;22.25;57.01;97736.34;5017643;28;20052;-68
2023/09/13 09:53:22;;;;;;;5.05;4.32;;;20.80;77.10;;;22.34;57.15;97737.66;5015258;27;20038;-67
2023/09/13 09:55:51;;;;;;;5.32;4.30;;;20.90;76.70;;;22.40;56.72;97733.19;5019647;28;20068;-68
2023/09/13 09:58:21;;;;;;;5.88;4.57;;;21.00;76.20;;;22.37;56.47;97741.78;5019691;28;20045;-68
2023/09/13 10:00:52;;;;;;;6.13;4.15;;;21.00;75.80;;;22.52;56.61;97735.91;5018214;28;20057;-67
2023/09/13 10:03:21;;;;;;;5.10;3.97;;;21.10;75.60;;;22.64;56.07;97736.72;5016003;28;20046;-68
2023/09/13 10:06:13;;;;;;;4.97;4.03;;;21.30;74.80;;;22.70;55.89;97729.50;5017059;28;20038;-67
2023/09/13 10:08:47;;;;;;;5.40;4.63;;;21.40;74.00;;;22.78;55.41;97734.59;5019431;28;20040;-67
2023/09/13 10:11:20;;;;;;;6.00;4.50;;;21.40;73.20;;;22.87;55.30;97726.91;5020790;28;20038;-68
2023/09/13 10:13:49;;;;;;;6.30;4.60;;;21.50;73.10;;;22.93;54.98;97728.66;5018486;28;20436;-68
2023/09/13 10:16:18;;;;;;;5.30;3.63;;;21.60;73.30;;;22.77;54.27;97728.31;5016100;28;20026;-67
2023/09/13 10:18:51;;;;;;;4.78;3.83;;;21.40;71.10;;;22.80;54.20;97738.72;5016233;28;20524;-68
2023/09/13 10:21:28;;;;;;;6.75;5.13;;;21.50;71.50;;;22.87;54.15;97735.88;5020435;28;20469;-68
2023/09/13 10:24:07;;;;;;;5.18;4.22;;;21.50;71.20;;;22.97;54.26;97737.97;5016834;28;20123;-68
2023/09/13 10:26:35;;;;;;;4.32;3.40;;;21.60;70.20;;;23.09;53.71;97737.97;5016024;28;20049;-67
2023/09/13 10:29:40;;;;;;;4.28;3.38;;;21.80;70.30;;;23.06;52.73;97736.56;5026069;28;20045;-67
2023/09/13 10:32:14;;;;;;;5.15;3.30;;;21.80;69.10;;;23.12;53.24;97732.09;5016870;28;20068;-67